Grub im Wienerwald
Wetterdaten: aktuell Dienstag, 19.02.2019 16:57
Datum Zeit Temp. A. Feuchte A. Luftdruck Regen Wind Richtung Richtung Sonnenschein UV Solar Taupunkt Windchill Windben
19.02.2019 16:57 10,4 C 51 % 1019,0 hPa 0,0 l/m 9,3 km/h NW 320 0 min 0,0 UV-I 21 W/m 0,7 C 8,4 C 17,7 km/h
19.02.2019 16:54 10,5 C 51 % 1019,0 hPa 0,0 l/m 9,1 km/h W-NW 300 0 min 0,0 UV-I 23 W/m 0,8 C 8,7 C 14,5 km/h
19.02.2019 16:51 10,6 C 51 % 1019,0 hPa 0,0 l/m 6,4 km/h N-NW 335 0 min 0,0 UV-I 25 W/m 0,9 C 10,6 C 11,3 km/h
19.02.2019 16:48 10,7 C 50 % 1019,0 hPa 0,0 l/m 8,1 km/h NW 306 0 min 0,0 UV-I 26 W/m 0,7 C 9,5 C 14,5 km/h
19.02.2019 16:45 10,7 C 50 % 1019,0 hPa 0,0 l/m 8,3 km/h NW 319 0 min 0,0 UV-I 28 W/m 0,7 C 9,4 C 14,5 km/h
19.02.2019 16:42 10,8 C 50 % 1019,1 hPa 0,0 l/m 7,3 km/h N-NW 348 0 min 0,0 UV-I 30 W/m 0,8 C 10,2 C 12,9 km/h
19.02.2019 16:39 10,8 C 50 % 1019,1 hPa 0,0 l/m 10,3 km/h N 355 0 min 0,0 UV-I 32 W/m 0,8 C 8,3 C 16,1 km/h
19.02.2019 16:36 10,9 C 49 % 1019,1 hPa 0,0 l/m 11,5 km/h NW 317 0 min 0,0 UV-I 32 W/m 0,6 C 7,8 C 17,7 km/h
19.02.2019 16:33 10,9 C 49 % 1019,1 hPa 0,0 l/m 10,3 km/h W-NW 298 0 min 0,0 UV-I 33 W/m 0,6 C 8,4 C 19,3 km/h
19.02.2019 16:30 11,0 C 49 % 1019,1 hPa 0,0 l/m 9,4 km/h N-NW 332 0 min 0,0 UV-I 33 W/m 0,7 C 9,0 C 16,1 km/h
19.02.2019 16:27 11,1 C 49 % 1019,1 hPa 0,0 l/m 12,1 km/h NW 320 0 min 0,0 UV-I 35 W/m 0,8 C 7,7 C 19,3 km/h
19.02.2019 16:24 11,2 C 48 % 1019,1 hPa 0,0 l/m 11,2 km/h NW 321 0 min 0,0 UV-I 35 W/m 0,6 C 8,3 C 22,5 km/h
19.02.2019 16:21 11,2 C 48 % 1019,2 hPa 0,0 l/m 12,9 km/h NW 317 0 min 0,0 UV-I 37 W/m 0,6 C 7,5 C 17,7 km/h
19.02.2019 16:18 11,3 C 48 % 1019,1 hPa 0,0 l/m 11,1 km/h N-NW 336 0 min 0,0 UV-I 37 W/m 0,7 C 8,5 C 19,3 km/h
19.02.2019 16:15 11,3 C 48 % 1019,1 hPa 0,0 l/m 15,7 km/h N-NW 330 0 min 0,0 UV-I 37 W/m 0,7 C 6,4 C 27,4 km/h
19.02.2019 16:12 11,3 C 48 % 1019,1 hPa 0,0 l/m 12,8 km/h N-NW 333 0 min 0,0 UV-I 39 W/m 0,7 C 7,6 C 20,9 km/h
19.02.2019 16:09 11,4 C 48 % 1019,1 hPa 0,0 l/m 10,6 km/h W-NW 288 0 min 0,0 UV-I 39 W/m 0,8 C 8,8 C 17,7 km/h
19.02.2019 16:06 11,4 C 48 % 1019,2 hPa 0,0 l/m 15,1 km/h W 271 0 min 0,0 UV-I 40 W/m 0,8 C 6,8 C 25,7 km/h
19.02.2019 16:03 11,5 C 48 % 1019,1 hPa 0,0 l/m 12,0 km/h NW 311 0 min 0,0 UV-I 40 W/m 0,9 C 8,2 C 17,7 km/h
19.02.2019 16:00 11,6 C 47 % 1019,1 hPa 0,0 l/m 12,4 km/h NW 315 0 min 0,0 UV-I 40 W/m 0,7 C 8,2 C 22,5 km/h
19.02.2019 15:57 11,7 C 47 % 1019,1 hPa 0,0 l/m 11,9 km/h NW 306 0 min 0,0 UV-I 40 W/m 0,8 C 8,5 C 17,7 km/h
19.02.2019 15:54 11,7 C 47 % 1019,1 hPa 0,0 l/m 11,3 km/h NW 319 0 min 0,0 UV-I 42 W/m 0,8 C 8,8 C 20,9 km/h
19.02.2019 15:51 11,8 C 47 % 1019,2 hPa 0,0 l/m 10,6 km/h NW 325 0 min 0,0 UV-I 42 W/m 0,9 C 9,3 C 17,7 km/h
19.02.2019 15:48 11,9 C 47 % 1019,2 hPa 0,0 l/m 16,6 km/h N-NW 340 0 min 0,0 UV-I 42 W/m 1,0 C 6,8 C 25,7 km/h
19.02.2019 15:45 11,9 C 47 % 1019,2 hPa 0,0 l/m 16,0 km/h NW 324 0 min 0,0 UV-I 42 W/m 1,0 C 7,1 C 27,4 km/h
19.02.2019 15:42 12,0 C 47 % 1019,2 hPa 0,0 l/m 14,9 km/h W-NW 300 0 min 0,0 UV-I 42 W/m 1,0 C 7,6 C 22,5 km/h
19.02.2019 15:39 12,1 C 46 % 1019,2 hPa 0,0 l/m 15,1 km/h N-NW 336 0 min 0,0 UV-I 42 W/m 0,8 C 7,6 C 27,4 km/h
19.02.2019 15:36 12,1 C 47 % 1019,3 hPa 0,0 l/m 15,1 km/h N-NW 330 0 min 0,8 UV-I 102 W/m 1,1 C 7,6 C 24,1 km/h
19.02.2019 15:33 12,1 C 46 % 1019,2 hPa 0,0 l/m 18,2 km/h N-NW 346 0 min 0,0 UV-I 49 W/m 0,8 C 6,6 C 30,6 km/h
19.02.2019 15:30 12,2 C 46 % 1019,3 hPa 0,0 l/m 13,9 km/h W-NW 302 3 min 0,9 UV-I 186 W/m 0,9 C 8,2 C 30,6 km/h
19.02.2019 15:27 12,2 C 46 % 1019,1 hPa 0,0 l/m 16,2 km/h N 360 3 min 0,9 UV-I 265 W/m 0,9 C 7,4 C 33,8 km/h
19.02.2019 15:24 12,3 C 46 % 1019,2 hPa 0,0 l/m 14,4 km/h NW 318 3 min 1,0 UV-I 274 W/m 1,0 C 8,2 C 27,4 km/h
19.02.2019 15:21 12,3 C 46 % 1019,1 hPa 0,0 l/m 12,6 km/h W-NW 286 3 min 1,0 UV-I 279 W/m 1,0 C 8,9 C 24,1 km/h
19.02.2019 15:18 12,3 C 46 % 1019,2 hPa 0,0 l/m 13,4 km/h N-NW 333 3 min 1,0 UV-I 288 W/m 1,0 C 8,6 C 22,5 km/h
19.02.2019 15:15 12,4 C 46 % 1019,2 hPa 0,0 l/m 13,1 km/h NW 325 3 min 1,1 UV-I 292 W/m 1,1 C 8,8 C 22,5 km/h
19.02.2019 15:12 12,5 C 46 % 1019,2 hPa 0,0 l/m 15,4 km/h N-NW 327 3 min 1,1 UV-I 301 W/m 1,2 C 8,0 C 24,1 km/h
19.02.2019 15:09 12,5 C 46 % 1019,2 hPa 0,0 l/m 13,8 km/h NW 312 3 min 1,1 UV-I 309 W/m 1,2 C 8,6 C 27,4 km/h
19.02.2019 15:06 12,5 C 46 % 1019,2 hPa 0,0 l/m 11,6 km/h N-NW 331 3 min 1,1 UV-I 315 W/m 1,2 C 9,6 C 22,5 km/h
19.02.2019 15:03 12,5 C 46 % 1019,1 hPa 0,0 l/m 13,6 km/h W-NW 295 3 min 1,2 UV-I 320 W/m 1,2 C 8,7 C 22,5 km/h
19.02.2019 15:00 12,5 C 46 % 1019,2 hPa 0,0 l/m 12,0 km/h NW 314 3 min 1,2 UV-I 327 W/m 1,2 C 9,4 C 20,9 km/h
19.02.2019 14:57 12,5 C 46 % 1019,3 hPa 0,0 l/m 16,0 km/h NW 319 3 min 1,2 UV-I 334 W/m 1,2 C 7,8 C 29,0 km/h
19.02.2019 14:54 12,5 C 46 % 1019,3 hPa 0,0 l/m 15,1 km/h NW 323 3 min 1,3 UV-I 341 W/m 1,2 C 8,1 C 25,7 km/h
19.02.2019 14:51 12,5 C 46 % 1019,2 hPa 0,0 l/m 15,5 km/h W-NW 294 3 min 1,3 UV-I 346 W/m 1,2 C 8,0 C 32,2 km/h
19.02.2019 14:48 12,5 C 46 % 1019,3 hPa 0,0 l/m 12,4 km/h W 268 3 min 1,3 UV-I 352 W/m 1,2 C 9,2 C 19,3 km/h
19.02.2019 14:45 12,5 C 46 % 1019,3 hPa 0,0 l/m 17,0 km/h NW 326 3 min 1,5 UV-I 362 W/m 1,2 C 7,5 C 32,2 km/h
19.02.2019 14:42 12,4 C 46 % 1019,3 hPa 0,0 l/m 16,7 km/h W-NW 302 3 min 1,5 UV-I 366 W/m 1,1 C 7,4 C 27,4 km/h
19.02.2019 14:39 12,4 C 46 % 1019,2 hPa 0,0 l/m 17,6 km/h NW 325 3 min 1,5 UV-I 374 W/m 1,1 C 7,1 C 29,0 km/h
19.02.2019 14:36 12,4 C 46 % 1019,4 hPa 0,0 l/m 17,0 km/h NW 315 3 min 1,6 UV-I 380 W/m 1,1 C 7,3 C 29,0 km/h
19.02.2019 14:33 12,4 C 47 % 1019,5 hPa 0,0 l/m 16,5 km/h W 280 3 min 1,6 UV-I 390 W/m 1,4 C 7,5 C 37,0 km/h
19.02.2019 14:30 12,4 C 46 % 1019,4 hPa 0,0 l/m 17,7 km/h N 355 3 min 1,6 UV-I 392 W/m 1,1 C 7,1 C 27,4 km/h
19.02.2019 14:27 12,4 C 46 % 1019,4 hPa 0,0 l/m 17,0 km/h NW 325 3 min 1,7 UV-I 397 W/m 1,1 C 7,3 C 29,0 km/h
19.02.2019 14:24 12,3 C 46 % 1019,5 hPa 0,0 l/m 18,8 km/h N-NW 336 3 min 1,7 UV-I 401 W/m 1,0 C 6,6 C 30,6 km/h
19.02.2019 14:21 12,3 C 46 % 1019,5 hPa 0,0 l/m 17,2 km/h N-NW 331 3 min 1,7 UV-I 413 W/m 1,0 C 7,1 C 27,4 km/h
19.02.2019 14:18 12,3 C 46 % 1019,4 hPa 0,0 l/m 16,5 km/h W 265 3 min 1,8 UV-I 413 W/m 1,0 C 7,4 C 27,4 km/h
19.02.2019 14:15 12,3 C 46 % 1019,4 hPa 0,0 l/m 20,8 km/h N-NW 333 3 min 1,8 UV-I 418 W/m 1,0 C 6,0 C 32,2 km/h
19.02.2019 14:12 12,3 C 47 % 1019,5 hPa 0,0 l/m 16,0 km/h W 276 3 min 1,9 UV-I 427 W/m 1,3 C 7,6 C 29,0 km/h
19.02.2019 14:09 12,3 C 47 % 1019,5 hPa 0,0 l/m 14,7 km/h NW 306 3 min 1,9 UV-I 431 W/m 1,3 C 8,0 C 20,9 km/h
19.02.2019 14:06 12,2 C 46 % 1019,5 hPa 0,0 l/m 16,7 km/h NW 314 3 min 1,9 UV-I 436 W/m 0,9 C 7,2 C 27,4 km/h
19.02.2019 14:03 12,2 C 47 % 1019,5 hPa 0,0 l/m 16,1 km/h N 355 3 min 2,0 UV-I 441 W/m 1,2 C 7,4 C 25,7 km/h
19.02.2019 14:00 12,2 C 47 % 1019,6 hPa 0,0 l/m 16,4 km/h N-NW 346 3 min 2,0 UV-I 445 W/m 1,2 C 7,3 C 25,7 km/h
19.02.2019 13:57 12,2 C 47 % 1019,6 hPa 0,0 l/m 15,1 km/h NW 304 3 min 2,0 UV-I 448 W/m 1,2 C 7,8 C 27,4 km/h
19.02.2019 13:54 12,2 C 47 % 1019,5 hPa 0,0 l/m 16,2 km/h N-NW 342 3 min 2,1 UV-I 455 W/m 1,2 C 7,4 C 30,6 km/h
19.02.2019 13:51 12,2 C 48 % 1019,5 hPa 0,0 l/m 18,7 km/h NW 315 3 min 2,1 UV-I 461 W/m 1,5 C 6,5 C 41,8 km/h
19.02.2019 13:48 12,2 C 49 % 1019,5 hPa 0,0 l/m 11,7 km/h N-NW 334 3 min 2,1 UV-I 461 W/m 1,8 C 9,2 C 19,3 km/h
19.02.2019 13:45 12,1 C 49 % 1019,6 hPa 0,0 l/m 12,7 km/h NW 321 3 min 2,2 UV-I 464 W/m 1,7 C 8,6 C 20,9 km/h
19.02.2019 13:42 12,1 C 49 % 1019,6 hPa 0,0 l/m 15,5 km/h NW 321 3 min 2,2 UV-I 466 W/m 1,7 C 7,5 C 24,1 km/h
19.02.2019 13:39 12,1 C 48 % 1019,7 hPa 0,0 l/m 18,1 km/h NW 317 3 min 2,2 UV-I 471 W/m 1,4 C 6,6 C 32,2 km/h
19.02.2019 13:36 12,1 C 49 % 1019,8 hPa 0,0 l/m 20,4 km/h W 277 3 min 2,2 UV-I 475 W/m 1,7 C 5,9 C 41,8 km/h
19.02.2019 13:33 12,1 C 49 % 1019,7 hPa 0,0 l/m 18,7 km/h NW 320 3 min 2,4 UV-I 476 W/m 1,7 C 6,4 C 32,2 km/h
19.02.2019 13:30 11,9 C 50 % 1019,7 hPa 0,0 l/m 10,9 km/h N-NW 339 3 min 2,4 UV-I 483 W/m 1,8 C 9,2 C 19,3 km/h
19.02.2019 13:27 11,8 C 50 % 1019,8 hPa 0,0 l/m 10,9 km/h NW 317 3 min 2,4 UV-I 483 W/m 1,7 C 9,1 C 20,9 km/h
19.02.2019 13:24 11,7 C 50 % 1019,8 hPa 0,0 l/m 15,4 km/h W-NW 290 3 min 2,5 UV-I 494 W/m 1,6 C 7,0 C 32,2 km/h
19.02.2019 13:21 11,7 C 50 % 1019,8 hPa 0,0 l/m 16,9 km/h W 277 3 min 2,5 UV-I 492 W/m 1,6 C 6,5 C 29,0 km/h
19.02.2019 13:18 11,6 C 51 % 1019,8 hPa 0,0 l/m 20,4 km/h NW 325 3 min 2,5 UV-I 492 W/m 1,8 C 5,2 C 30,6 km/h
19.02.2019 13:15 11,6 C 51 % 1019,9 hPa 0,0 l/m 18,5 km/h N-NW 342 3 min 2,5 UV-I 497 W/m 1,8 C 5,8 C 30,6 km/h
19.02.2019 13:12 11,6 C 51 % 1020,0 hPa 0,0 l/m 16,0 km/h NW 306 3 min 2,6 UV-I 499 W/m 1,8 C 6,7 C 30,6 km/h
19.02.2019 13:09 11,6 C 51 % 1020,0 hPa 0,0 l/m 15,8 km/h NW 325 3 min 2,6 UV-I 501 W/m 1,8 C 6,8 C 35,4 km/h
19.02.2019 13:06 11,6 C 51 % 1020,0 hPa 0,0 l/m 15,1 km/h NW 306 3 min 2,6 UV-I 506 W/m 1,8 C 7,0 C 25,7 km/h
19.02.2019 13:03 11,5 C 51 % 1019,9 hPa 0,0 l/m 13,1 km/h N 355 3 min 2,6 UV-I 508 W/m 1,7 C 7,7 C 25,7 km/h
19.02.2019 13:00 11,4 C 51 % 1020,1 hPa 0,0 l/m 13,5 km/h W-NW 296 3 min 2,6 UV-I 512 W/m 1,6 C 7,4 C 25,7 km/h
19.02.2019 12:57 11,4 C 51 % 1020,0 hPa 0,0 l/m 15,2 km/h NW 325 3 min 2,6 UV-I 512 W/m 1,6 C 6,8 C 29,0 km/h
19.02.2019 12:54 11,4 C 50 % 1020,1 hPa 0,0 l/m 15,8 km/h NW 308 3 min 2,7 UV-I 513 W/m 1,4 C 6,5 C 30,6 km/h
19.02.2019 12:51 11,5 C 50 % 1020,0 hPa 0,0 l/m 20,8 km/h NW 305 3 min 2,7 UV-I 508 W/m 1,4 C 5,0 C 41,8 km/h
19.02.2019 12:48 11,6 C 50 % 1020,2 hPa 0,0 l/m 13,9 km/h W 271 3 min 2,7 UV-I 519 W/m 1,5 C 7,5 C 33,8 km/h
19.02.2019 12:45 11,6 C 51 % 1020,0 hPa 0,0 l/m 10,7 km/h W-NW 295 3 min 2,7 UV-I 512 W/m 1,8 C 9,0 C 27,4 km/h
19.02.2019 12:42 11,6 C 50 % 1020,0 hPa 0,0 l/m 14,0 km/h N-NW 346 3 min 2,7 UV-I 510 W/m 1,5 C 7,5 C 29,0 km/h
19.02.2019 12:39 11,5 C 51 % 1020,1 hPa 0,0 l/m 10,9 km/h W-NW 303 3 min 2,7 UV-I 517 W/m 1,7 C 8,8 C 20,9 km/h
19.02.2019 12:36 11,4 C 51 % 1020,1 hPa 0,0 l/m 12,8 km/h N 360 3 min 2,7 UV-I 517 W/m 1,6 C 7,8 C 24,1 km/h
19.02.2019 12:33 11,3 C 51 % 1020,1 hPa 0,0 l/m 14,2 km/h NW 307 3 min 2,7 UV-I 519 W/m 1,5 C 7,0 C 25,7 km/h
19.02.2019 12:30 11,3 C 50 % 1020,0 hPa 0,0 l/m 11,5 km/h N-NW 335 3 min 2,7 UV-I 517 W/m 1,3 C 8,3 C 24,1 km/h
19.02.2019 12:27 11,3 C 50 % 1020,1 hPa 0,0 l/m 16,3 km/h N-NW 336 3 min 2,7 UV-I 520 W/m 1,3 C 6,2 C 29,0 km/h
_ Min-Zeit 06:21 14:06 03:57 - 17:09 - - - - - 06:21 06:21 17:12
Minimum _ -5,7 C 46 % 1019,0 hPa - 0,0 km/h - - - - - -6,6 C -5,7 C 0,0 km/h
_ Max-Zeit 14:45 09:00 18:03 17:00 12:51 - - 17:00 11:39 12:21 17:00 16:51 12:51
Maximum _ 12,5 C 98 % 1020,9 hPa 0,0 l/m 20,8 km/h
NW
- - 3 min 2,7 UV-I 520 W/m 3,5 C 10,6 C 41,8 km/h
W-NW
Durchschnitt _ 2,4 C 76 % 1019,9 hPa #0,0 l/m 4,7 km/h NW - #7:18 h 1,9 UV-I 302 W/m -1,9 C 1,1 C 8,7 km/h
Schulla EDV